VLVT/VTE METAR and TAF weather

Enter ICAO airport designator
Station Type Date Time Source
VLVT METAR 2021/04/13 07:00 UTC NOAA

VLVT 130700Z 18004KT 8000 SCT020 FEW200 36/22 Q1008 NOSIG


Station Type Date Time Source
VLVT Decoded METAR 2021/04/13 07:00 UTC NOAA

Vientiane, Laos (VLVT) 17-57N 102-34E 171M
Apr 13, 2021 - 03:00 AM EDT / 2021.04.13 0700 UTC
Wind: from the S (180 degrees) at 5 MPH (4 KT):0
Visibility: 4 mile(s):0
Sky conditions: partly cloudy
Temperature: 96 F (36 C)
Heat index: 103.5 F (39.7 C):1
Dew Point: 71 F (22 C)
Relative Humidity: 44%
Pressure (altimeter): 29.77 in. Hg (1008 hPa)
ob: VLVT 130700Z 18004KT 8000 SCT020 FEW200 36/22 Q1008 NOSIG
cycle: 7

Station Type Date Time Source
VLVT TAF 2021/04/13 06:39 UTC NOAA

TAF TAF VLVT 130500Z 1306/1406 18004KT 8000 SCT020 SCT200

Example: see airport list